sensor_id;sensor_type;location;lat;lon;timestamp;P1;durP1;ratioP1;P2;durP2;ratioP2
7173;SDS011;3628;48.654;8.932;2022-12-16T00:01:04;29.87;;;17.43;;
7173;SDS011;3628;48.654;8.932;2022-12-16T00:03:30;27.47;;;16.87;;
7173;SDS011;3628;48.654;8.932;2022-12-16T00:05:56;28.17;;;16.17;;
7173;SDS011;3628;48.654;8.932;2022-12-16T00:08:21;28.70;;;16.30;;
7173;SDS011;3628;48.654;8.932;2022-12-16T00:10:47;25.87;;;16.07;;
7173;SDS011;3628;48.654;8.932;2022-12-16T00:13:19;25.67;;;15.17;;
7173;SDS011;3628;48.654;8.932;2022-12-16T00:15:45;27.00;;;15.03;;
7173;SDS011;3628;48.654;8.932;2022-12-16T00:18:11;28.60;;;16.43;;
7173;SDS011;3628;48.654;8.932;2022-12-16T00:20:41;25.93;;;15.73;;
7173;SDS011;3628;48.654;8.932;2022-12-16T00:23:11;28.70;;;17.10;;
7173;SDS011;3628;48.654;8.932;2022-12-16T00:25:37;26.07;;;15.17;;
7173;SDS011;3628;48.654;8.932;2022-12-16T00:28:03;26.10;;;14.57;;
7173;SDS011;3628;48.654;8.932;2022-12-16T00:30:28;24.33;;;15.20;;
7173;SDS011;3628;48.654;8.932;2022-12-16T00:32:54;55.13;;;17.87;;
7173;SDS011;3628;48.654;8.932;2022-12-16T00:35:19;25.40;;;15.73;;
7173;SDS011;3628;48.654;8.932;2022-12-16T00:37:48;54.47;;;18.27;;
7173;SDS011;3628;48.654;8.932;2022-12-16T00:40:13;27.33;;;16.33;;
7173;SDS011;3628;48.654;8.932;2022-12-16T00:42:39;25.00;;;15.03;;
7173;SDS011;3628;48.654;8.932;2022-12-16T00:45:04;42.00;;;16.43;;
7173;SDS011;3628;48.654;8.932;2022-12-16T00:47:30;24.43;;;15.17;;
7173;SDS011;3628;48.654;8.932;2022-12-16T00:49:56;49.47;;;17.07;;
7173;SDS011;3628;48.654;8.932;2022-12-16T00:52:22;25.23;;;15.37;;
7173;SDS011;3628;48.654;8.932;2022-12-16T00:54:47;27.23;;;14.23;;
7173;SDS011;3628;48.654;8.932;2022-12-16T00:57:13;23.87;;;14.43;;
7173;SDS011;3628;48.654;8.932;2022-12-16T00:59:39;27.50;;;14.90;;
7173;SDS011;3628;48.654;8.932;2022-12-16T01:02:04;26.00;;;15.03;;
7173;SDS011;3628;48.654;8.932;2022-12-16T01:04:30;38.23;;;16.33;;
7173;SDS011;3628;48.654;8.932;2022-12-16T01:06:56;24.03;;;14.33;;
7173;SDS011;3628;48.654;8.932;2022-12-16T01:09:21;27.13;;;14.80;;
7173;SDS011;3628;48.654;8.932;2022-12-16T01:11:47;32.00;;;14.87;;
7173;SDS011;3628;48.654;8.932;2022-12-16T01:14:12;23.90;;;13.87;;
7173;SDS011;3628;48.654;8.932;2022-12-16T01:16:38;23.67;;;14.67;;
7173;SDS011;3628;48.654;8.932;2022-12-16T01:19:03;26.43;;;14.60;;
7173;SDS011;3628;48.654;8.932;2022-12-16T01:21:29;28.00;;;15.63;;
7173;SDS011;3628;48.654;8.932;2022-12-16T01:23:55;25.13;;;14.73;;
7173;SDS011;3628;48.654;8.932;2022-12-16T01:26:20;26.07;;;14.67;;
7173;SDS011;3628;48.654;8.932;2022-12-16T01:28:46;22.87;;;14.40;;
7173;SDS011;3628;48.654;8.932;2022-12-16T01:31:13;26.37;;;14.07;;
7173;SDS011;3628;48.654;8.932;2022-12-16T01:33:42;25.97;;;15.00;;
7173;SDS011;3628;48.654;8.932;2022-12-16T01:36:08;206.37;;;27.83;;
7173;SDS011;3628;48.654;8.932;2022-12-16T01:38:34;27.47;;;14.80;;
7173;SDS011;3628;48.654;8.932;2022-12-16T01:41:00;25.50;;;14.47;;
7173;SDS011;3628;48.654;8.932;2022-12-16T01:43:30;22.67;;;14.70;;
7173;SDS011;3628;48.654;8.932;2022-12-16T01:51:29;25.27;;;15.20;;
7173;SDS011;3628;48.654;8.932;2022-12-16T01:53:57;26.97;;;15.23;;
7173;SDS011;3628;48.654;8.932;2022-12-16T01:56:27;25.17;;;14.43;;
7173;SDS011;3628;48.654;8.932;2022-12-16T01:58:56;92.37;;;17.93;;
7173;SDS011;3628;48.654;8.932;2022-12-16T02:01:23;24.17;;;14.10;;
7173;SDS011;3628;48.654;8.932;2022-12-16T02:03:50;26.33;;;14.93;;
7173;SDS011;3628;48.654;8.932;2022-12-16T02:06:18;26.10;;;14.80;;
7173;SDS011;3628;48.654;8.932;2022-12-16T02:08:43;24.07;;;14.83;;
7173;SDS011;3628;48.654;8.932;2022-12-16T02:24:47;21.83;;;13.97;;
7173;SDS011;3628;48.654;8.932;2022-12-16T02:27:46;23.53;;;13.83;;
7173;SDS011;3628;48.654;8.932;2022-12-16T02:33:16;25.10;;;14.20;;
7173;SDS011;3628;48.654;8.932;2022-12-16T02:36:02;21.10;;;13.60;;
7173;SDS011;3628;48.654;8.932;2022-12-16T02:41:04;22.77;;;13.57;;
7173;SDS011;3628;48.654;8.932;2022-12-16T02:46:04;40.73;;;15.03;;
7173;SDS011;3628;48.654;8.932;2022-12-16T02:48:31;21.20;;;12.60;;
7173;SDS011;3628;48.654;8.932;2022-12-16T02:50:56;22.70;;;13.20;;
7173;SDS011;3628;48.654;8.932;2022-12-16T02:53:22;36.07;;;14.37;;
7173;SDS011;3628;48.654;8.932;2022-12-16T02:55:58;28.20;;;14.13;;
7173;SDS011;3628;48.654;8.932;2022-12-16T03:01:31;22.63;;;13.47;;
7173;SDS011;3628;48.654;8.932;2022-12-16T03:04:21;25.43;;;13.73;;
7173;SDS011;3628;48.654;8.932;2022-12-16T03:06:50;42.50;;;14.80;;
7173;SDS011;3628;48.654;8.932;2022-12-16T03:09:20;28.57;;;13.33;;
7173;SDS011;3628;48.654;8.932;2022-12-16T03:11:49;25.40;;;13.27;;
7173;SDS011;3628;48.654;8.932;2022-12-16T03:14:18;33.47;;;13.60;;
7173;SDS011;3628;48.654;8.932;2022-12-16T03:16:47;84.37;;;17.43;;
7173;SDS011;3628;48.654;8.932;2022-12-16T03:19:14;23.20;;;12.63;;
7173;SDS011;3628;48.654;8.932;2022-12-16T03:21:44;21.47;;;13.43;;
7173;SDS011;3628;48.654;8.932;2022-12-16T03:24:18;64.33;;;14.73;;
7173;SDS011;3628;48.654;8.932;2022-12-16T03:26:50;20.47;;;12.63;;
7173;SDS011;3628;48.654;8.932;2022-12-16T03:29:33;77.93;;;16.53;;
7173;SDS011;3628;48.654;8.932;2022-12-16T03:37:51;20.87;;;12.10;;
7173;SDS011;3628;48.654;8.932;2022-12-16T03:40:19;22.30;;;12.97;;
7173;SDS011;3628;48.654;8.932;2022-12-16T03:42:46;21.03;;;11.93;;
7173;SDS011;3628;48.654;8.932;2022-12-16T03:45:16;24.60;;;13.87;;
7173;SDS011;3628;48.654;8.932;2022-12-16T03:47:47;18.20;;;11.67;;
7173;SDS011;3628;48.654;8.932;2022-12-16T03:50:22;20.20;;;11.33;;
7173;SDS011;3628;48.654;8.932;2022-12-16T03:52:54;19.70;;;12.00;;
7173;SDS011;3628;48.654;8.932;2022-12-16T03:55:19;20.30;;;11.93;;
7173;SDS011;3628;48.654;8.932;2022-12-16T03:57:45;21.90;;;12.53;;
7173;SDS011;3628;48.654;8.932;2022-12-16T04:00:10;22.27;;;12.27;;
7173;SDS011;3628;48.654;8.932;2022-12-16T04:02:36;77.80;;;14.77;;
7173;SDS011;3628;48.654;8.932;2022-12-16T04:05:02;21.97;;;12.87;;
7173;SDS011;3628;48.654;8.932;2022-12-16T04:07:28;21.23;;;12.37;;
7173;SDS011;3628;48.654;8.932;2022-12-16T04:09:53;23.10;;;13.03;;
7173;SDS011;3628;48.654;8.932;2022-12-16T04:12:19;94.03;;;17.00;;
7173;SDS011;3628;48.654;8.932;2022-12-16T04:15:03;18.03;;;11.40;;
7173;SDS011;3628;48.654;8.932;2022-12-16T04:17:48;18.77;;;11.03;;
7173;SDS011;3628;48.654;8.932;2022-12-16T04:20:34;18.90;;;11.77;;
7173;SDS011;3628;48.654;8.932;2022-12-16T04:23:25;20.07;;;12.03;;
7173;SDS011;3628;48.654;8.932;2022-12-16T04:26:11;18.97;;;11.03;;
7173;SDS011;3628;48.654;8.932;2022-12-16T04:28:37;18.10;;;10.97;;
7173;SDS011;3628;48.654;8.932;2022-12-16T04:31:02;23.53;;;12.73;;
7173;SDS011;3628;48.654;8.932;2022-12-16T04:33:28;17.63;;;9.90;;
7173;SDS011;3628;48.654;8.932;2022-12-16T04:36:12;19.73;;;11.00;;
7173;SDS011;3628;48.654;8.932;2022-12-16T04:38:58;16.73;;;9.93;;
7173;SDS011;3628;48.654;8.932;2022-12-16T04:41:42;179.83;;;19.00;;
7173;SDS011;3628;48.654;8.932;2022-12-16T04:44:26;81.23;;;13.93;;
7173;SDS011;3628;48.654;8.932;2022-12-16T04:47:10;78.83;;;14.07;;
7173;SDS011;3628;48.654;8.932;2022-12-16T04:49:54;16.90;;;9.57;;
7173;SDS011;3628;48.654;8.932;2022-12-16T04:52:38;18.47;;;10.07;;
7173;SDS011;3628;48.654;8.932;2022-12-16T04:55:22;85.73;;;15.33;;
7173;SDS011;3628;48.654;8.932;2022-12-16T04:58:06;38.27;;;12.40;;
7173;SDS011;3628;48.654;8.932;2022-12-16T05:00:50;29.03;;;11.97;;
7173;SDS011;3628;48.654;8.932;2022-12-16T05:03:34;16.97;;;10.23;;
7173;SDS011;3628;48.654;8.932;2022-12-16T05:06:19;17.33;;;9.70;;
7173;SDS011;3628;48.654;8.932;2022-12-16T05:09:04;17.03;;;10.47;;
7173;SDS011;3628;48.654;8.932;2022-12-16T05:11:48;16.73;;;9.87;;
7173;SDS011;3628;48.654;8.932;2022-12-16T05:14:32;16.97;;;9.50;;
7173;SDS011;3628;48.654;8.932;2022-12-16T05:17:16;17.80;;;9.97;;
7173;SDS011;3628;48.654;8.932;2022-12-16T05:20:02;15.23;;;10.27;;
7173;SDS011;3628;48.654;8.932;2022-12-16T05:22:47;17.43;;;10.37;;
7173;SDS011;3628;48.654;8.932;2022-12-16T05:25:32;17.63;;;9.80;;
7173;SDS011;3628;48.654;8.932;2022-12-16T05:28:16;17.77;;;9.90;;
7173;SDS011;3628;48.654;8.932;2022-12-16T05:31:00;15.20;;;10.07;;
7173;SDS011;3628;48.654;8.932;2022-12-16T05:33:44;17.13;;;9.97;;
7173;SDS011;3628;48.654;8.932;2022-12-16T05:36:28;15.23;;;9.40;;
7173;SDS011;3628;48.654;8.932;2022-12-16T05:39:12;14.63;;;9.10;;
7173;SDS011;3628;48.654;8.932;2022-12-16T05:41:57;19.20;;;10.33;;
7173;SDS011;3628;48.654;8.932;2022-12-16T05:44:40;14.50;;;9.23;;
7173;SDS011;3628;48.654;8.932;2022-12-16T05:47:25;15.47;;;9.23;;
7173;SDS011;3628;48.654;8.932;2022-12-16T05:50:10;15.37;;;9.30;;
7173;SDS011;3628;48.654;8.932;2022-12-16T05:52:54;18.37;;;9.07;;
7173;SDS011;3628;48.654;8.932;2022-12-16T05:55:40;15.57;;;8.87;;
7173;SDS011;3628;48.654;8.932;2022-12-16T05:58:25;15.53;;;9.23;;
7173;SDS011;3628;48.654;8.932;2022-12-16T06:01:09;12.30;;;7.87;;
7173;SDS011;3628;48.654;8.932;2022-12-16T06:03:53;14.57;;;8.63;;
7173;SDS011;3628;48.654;8.932;2022-12-16T06:06:38;15.13;;;8.73;;
7173;SDS011;3628;48.654;8.932;2022-12-16T06:09:22;12.00;;;7.17;;
7173;SDS011;3628;48.654;8.932;2022-12-16T06:12:06;14.53;;;7.70;;
7173;SDS011;3628;48.654;8.932;2022-12-16T06:14:50;12.47;;;8.03;;
7173;SDS011;3628;48.654;8.932;2022-12-16T06:17:34;95.90;;;14.17;;
7173;SDS011;3628;48.654;8.932;2022-12-16T06:20:18;15.03;;;8.33;;
7173;SDS011;3628;48.654;8.932;2022-12-16T06:23:02;17.60;;;7.80;;
7173;SDS011;3628;48.654;8.932;2022-12-16T06:25:46;15.87;;;7.80;;
7173;SDS011;3628;48.654;8.932;2022-12-16T06:28:30;14.13;;;8.07;;
7173;SDS011;3628;48.654;8.932;2022-12-16T06:31:14;13.23;;;8.10;;
7173;SDS011;3628;48.654;8.932;2022-12-16T06:33:59;19.43;;;9.23;;
7173;SDS011;3628;48.654;8.932;2022-12-16T06:36:43;14.57;;;8.87;;
7173;SDS011;3628;48.654;8.932;2022-12-16T06:39:27;13.93;;;8.37;;
7173;SDS011;3628;48.654;8.932;2022-12-16T06:42:11;13.20;;;8.63;;
7173;SDS011;3628;48.654;8.932;2022-12-16T06:44:55;12.50;;;8.03;;
7173;SDS011;3628;48.654;8.932;2022-12-16T06:47:40;15.27;;;8.53;;
7173;SDS011;3628;48.654;8.932;2022-12-16T06:50:39;18.70;;;8.20;;
7173;SDS011;3628;48.654;8.932;2022-12-16T06:53:23;12.60;;;7.67;;
7173;SDS011;3628;48.654;8.932;2022-12-16T06:56:07;13.90;;;7.83;;
7173;SDS011;3628;48.654;8.932;2022-12-16T06:58:51;14.87;;;8.53;;
7173;SDS011;3628;48.654;8.932;2022-12-16T07:01:35;14.67;;;8.17;;
7173;SDS011;3628;48.654;8.932;2022-12-16T07:04:19;14.17;;;8.10;;
7173;SDS011;3628;48.654;8.932;2022-12-16T07:07:03;15.33;;;8.10;;
7173;SDS011;3628;48.654;8.932;2022-12-16T07:09:47;15.63;;;8.37;;
7173;SDS011;3628;48.654;8.932;2022-12-16T07:12:31;12.73;;;8.00;;
7173;SDS011;3628;48.654;8.932;2022-12-16T07:15:15;15.93;;;7.73;;
7173;SDS011;3628;48.654;8.932;2022-12-16T07:17:59;14.13;;;8.30;;
7173;SDS011;3628;48.654;8.932;2022-12-16T07:20:43;13.20;;;7.30;;
7173;SDS011;3628;48.654;8.932;2022-12-16T07:23:27;16.27;;;8.07;;
7173;SDS011;3628;48.654;8.932;2022-12-16T07:26:11;14.70;;;8.10;;
7173;SDS011;3628;48.654;8.932;2022-12-16T07:28:55;12.57;;;6.97;;
7173;SDS011;3628;48.654;8.932;2022-12-16T07:31:39;13.87;;;7.10;;
7173;SDS011;3628;48.654;8.932;2022-12-16T07:34:23;16.20;;;7.57;;
7173;SDS011;3628;48.654;8.932;2022-12-16T07:37:07;15.13;;;7.83;;
7173;SDS011;3628;48.654;8.932;2022-12-16T07:39:51;16.13;;;7.90;;
7173;SDS011;3628;48.654;8.932;2022-12-16T07:42:35;15.23;;;6.87;;
7173;SDS011;3628;48.654;8.932;2022-12-16T07:45:19;13.00;;;7.07;;
7173;SDS011;3628;48.654;8.932;2022-12-16T07:48:03;12.83;;;7.77;;
7173;SDS011;3628;48.654;8.932;2022-12-16T07:50:48;16.37;;;8.33;;
7173;SDS011;3628;48.654;8.932;2022-12-16T07:53:32;16.77;;;8.50;;
7173;SDS011;3628;48.654;8.932;2022-12-16T07:56:16;15.37;;;7.57;;
7173;SDS011;3628;48.654;8.932;2022-12-16T07:59:00;15.53;;;8.27;;
7173;SDS011;3628;48.654;8.932;2022-12-16T08:01:44;13.30;;;8.17;;
7173;SDS011;3628;48.654;8.932;2022-12-16T08:04:28;12.80;;;7.63;;
7173;SDS011;3628;48.654;8.932;2022-12-16T08:07:12;13.87;;;7.60;;
7173;SDS011;3628;48.654;8.932;2022-12-16T08:09:56;13.37;;;7.47;;
7173;SDS011;3628;48.654;8.932;2022-12-16T08:12:40;13.30;;;8.03;;
7173;SDS011;3628;48.654;8.932;2022-12-16T08:15:24;13.03;;;7.57;;
7173;SDS011;3628;48.654;8.932;2022-12-16T08:18:08;15.10;;;7.73;;
7173;SDS011;3628;48.654;8.932;2022-12-16T08:20:52;10.87;;;6.73;;
7173;SDS011;3628;48.654;8.932;2022-12-16T08:23:36;12.20;;;7.17;;
7173;SDS011;3628;48.654;8.932;2022-12-16T08:26:20;13.87;;;8.03;;
7173;SDS011;3628;48.654;8.932;2022-12-16T08:29:05;14.60;;;7.73;;
7173;SDS011;3628;48.654;8.932;2022-12-16T08:31:49;12.70;;;7.73;;
7173;SDS011;3628;48.654;8.932;2022-12-16T08:34:33;12.37;;;7.23;;
7173;SDS011;3628;48.654;8.932;2022-12-16T08:37:17;17.33;;;7.80;;
7173;SDS011;3628;48.654;8.932;2022-12-16T08:40:02;14.67;;;7.30;;
7173;SDS011;3628;48.654;8.932;2022-12-16T08:42:46;14.57;;;7.23;;
7173;SDS011;3628;48.654;8.932;2022-12-16T08:45:30;12.07;;;6.50;;
7173;SDS011;3628;48.654;8.932;2022-12-16T08:48:14;12.20;;;6.50;;
7173;SDS011;3628;48.654;8.932;2022-12-16T08:51:02;12.53;;;7.30;;
7173;SDS011;3628;48.654;8.932;2022-12-16T08:53:48;13.60;;;6.93;;
7173;SDS011;3628;48.654;8.932;2022-12-16T08:56:32;12.57;;;6.90;;
7173;SDS011;3628;48.654;8.932;2022-12-16T08:59:16;12.50;;;7.07;;
7173;SDS011;3628;48.654;8.932;2022-12-16T09:02:00;13.10;;;6.80;;
7173;SDS011;3628;48.654;8.932;2022-12-16T09:04:45;10.93;;;7.03;;
7173;SDS011;3628;48.654;8.932;2022-12-16T09:07:28;11.63;;;6.97;;
7173;SDS011;3628;48.654;8.932;2022-12-16T09:10:13;12.07;;;6.17;;
7173;SDS011;3628;48.654;8.932;2022-12-16T09:13:31;9.30;;;6.07;;
7173;SDS011;3628;48.654;8.932;2022-12-16T09:16:08;9.80;;;6.20;;
7173;SDS011;3628;48.654;8.932;2022-12-16T09:18:52;10.83;;;6.43;;
7173;SDS011;3628;48.654;8.932;2022-12-16T09:21:36;10.47;;;6.03;;
7173;SDS011;3628;48.654;8.932;2022-12-16T09:24:20;11.57;;;6.40;;
7173;SDS011;3628;48.654;8.932;2022-12-16T09:27:04;11.27;;;6.30;;
7173;SDS011;3628;48.654;8.932;2022-12-16T09:29:48;10.40;;;6.43;;
7173;SDS011;3628;48.654;8.932;2022-12-16T09:32:32;10.00;;;5.73;;
7173;SDS011;3628;48.654;8.932;2022-12-16T09:35:16;11.67;;;5.90;;
7173;SDS011;3628;48.654;8.932;2022-12-16T09:38:01;8.23;;;5.37;;
7173;SDS011;3628;48.654;8.932;2022-12-16T09:40:44;9.30;;;5.83;;
7173;SDS011;3628;48.654;8.932;2022-12-16T09:43:33;11.93;;;6.07;;
7173;SDS011;3628;48.654;8.932;2022-12-16T09:49:40;8.10;;;5.70;;
7173;SDS011;3628;48.654;8.932;2022-12-16T09:52:30;9.03;;;5.60;;
7173;SDS011;3628;48.654;8.932;2022-12-16T09:55:25;9.60;;;5.97;;
7173;SDS011;3628;48.654;8.932;2022-12-16T09:58:16;10.23;;;5.63;;
7173;SDS011;3628;48.654;8.932;2022-12-16T10:01:03;9.10;;;5.73;;
7173;SDS011;3628;48.654;8.932;2022-12-16T10:03:47;10.53;;;6.40;;
7173;SDS011;3628;48.654;8.932;2022-12-16T10:06:34;10.70;;;5.67;;
7173;SDS011;3628;48.654;8.932;2022-12-16T10:15:50;10.80;;;5.67;;
7173;SDS011;3628;48.654;8.932;2022-12-16T10:18:40;7.80;;;5.27;;
7173;SDS011;3628;48.654;8.932;2022-12-16T10:21:36;10.13;;;5.43;;
7173;SDS011;3628;48.654;8.932;2022-12-16T10:27:28;8.43;;;5.27;;
7173;SDS011;3628;48.654;8.932;2022-12-16T10:30:28;9.93;;;5.07;;
7173;SDS011;3628;48.654;8.932;2022-12-16T10:33:13;8.60;;;5.00;;
7173;SDS011;3628;48.654;8.932;2022-12-16T10:35:58;8.00;;;5.47;;
7173;SDS011;3628;48.654;8.932;2022-12-16T10:38:50;11.67;;;5.77;;
7173;SDS011;3628;48.654;8.932;2022-12-16T10:41:38;8.07;;;5.23;;
7173;SDS011;3628;48.654;8.932;2022-12-16T10:47:21;9.07;;;5.47;;
7173;SDS011;3628;48.654;8.932;2022-12-16T10:50:05;9.27;;;6.00;;
7173;SDS011;3628;48.654;8.932;2022-12-16T10:53:02;9.80;;;5.40;;
7173;SDS011;3628;48.654;8.932;2022-12-16T10:59:18;9.67;;;6.00;;
7173;SDS011;3628;48.654;8.932;2022-12-16T11:02:03;10.23;;;6.20;;
7173;SDS011;3628;48.654;8.932;2022-12-16T11:05:04;11.30;;;5.63;;
7173;SDS011;3628;48.654;8.932;2022-12-16T11:08:30;8.43;;;5.33;;
7173;SDS011;3628;48.654;8.932;2022-12-16T11:17:15;7.73;;;4.90;;
7173;SDS011;3628;48.654;8.932;2022-12-16T11:23:06;9.20;;;5.43;;
7173;SDS011;3628;48.654;8.932;2022-12-16T11:29:03;9.00;;;5.13;;
7173;SDS011;3628;48.654;8.932;2022-12-16T11:34:52;10.10;;;5.40;;
7173;SDS011;3628;48.654;8.932;2022-12-16T11:37:39;9.30;;;5.50;;
7173;SDS011;3628;48.654;8.932;2022-12-16T11:40:29;7.40;;;4.80;;
7173;SDS011;3628;48.654;8.932;2022-12-16T11:43:14;8.67;;;5.03;;
7173;SDS011;3628;48.654;8.932;2022-12-16T11:46:01;10.83;;;5.33;;
7173;SDS011;3628;48.654;8.932;2022-12-16T11:48:57;8.23;;;5.20;;
7173;SDS011;3628;48.654;8.932;2022-12-16T11:51:43;8.70;;;4.97;;
7173;SDS011;3628;48.654;8.932;2022-12-16T11:54:35;11.73;;;7.00;;
7173;SDS011;3628;48.654;8.932;2022-12-16T11:57:32;8.40;;;5.37;;
7173;SDS011;3628;48.654;8.932;2022-12-16T12:00:41;10.17;;;5.13;;
7173;SDS011;3628;48.654;8.932;2022-12-16T12:03:31;8.40;;;5.00;;
7173;SDS011;3628;48.654;8.932;2022-12-16T12:06:26;6.23;;;4.43;;
7173;SDS011;3628;48.654;8.932;2022-12-16T12:09:21;7.63;;;4.70;;
7173;SDS011;3628;48.654;8.932;2022-12-16T12:17:50;8.40;;;4.93;;
7173;SDS011;3628;48.654;8.932;2022-12-16T12:21:07;6.43;;;4.17;;
7173;SDS011;3628;48.654;8.932;2022-12-16T12:24:07;5.67;;;4.37;;
7173;SDS011;3628;48.654;8.932;2022-12-16T12:30:15;8.50;;;5.10;;
7173;SDS011;3628;48.654;8.932;2022-12-16T12:33:11;7.43;;;4.67;;
7173;SDS011;3628;48.654;8.932;2022-12-16T12:37:01;10.27;;;5.20;;
7173;SDS011;3628;48.654;8.932;2022-12-16T12:42:46;8.13;;;4.43;;
7173;SDS011;3628;48.654;8.932;2022-12-16T12:45:53;9.27;;;4.80;;
7173;SDS011;3628;48.654;8.932;2022-12-16T12:48:49;8.07;;;4.37;;
7173;SDS011;3628;48.654;8.932;2022-12-16T12:54:59;8.70;;;4.47;;
7173;SDS011;3628;48.654;8.932;2022-12-16T12:57:52;6.07;;;4.37;;
7173;SDS011;3628;48.654;8.932;2022-12-16T13:00:46;6.57;;;4.63;;
7173;SDS011;3628;48.654;8.932;2022-12-16T13:06:22;8.97;;;4.53;;
7173;SDS011;3628;48.654;8.932;2022-12-16T13:20:50;6.37;;;3.70;;
7173;SDS011;3628;48.654;8.932;2022-12-16T13:23:36;7.20;;;3.87;;
7173;SDS011;3628;48.654;8.932;2022-12-16T13:26:23;8.43;;;5.00;;
7173;SDS011;3628;48.654;8.932;2022-12-16T13:29:17;9.07;;;4.20;;
7173;SDS011;3628;48.654;8.932;2022-12-16T13:32:20;7.10;;;4.47;;
7173;SDS011;3628;48.654;8.932;2022-12-16T13:38:00;8.50;;;5.23;;
7173;SDS011;3628;48.654;8.932;2022-12-16T13:40:56;8.83;;;5.10;;
7173;SDS011;3628;48.654;8.932;2022-12-16T13:46:49;8.07;;;5.20;;
7173;SDS011;3628;48.654;8.932;2022-12-16T14:01:35;6.97;;;4.20;;
7173;SDS011;3628;48.654;8.932;2022-12-16T14:04:27;8.17;;;4.40;;
7173;SDS011;3628;48.654;8.932;2022-12-16T14:07:15;7.93;;;4.93;;
7173;SDS011;3628;48.654;8.932;2022-12-16T14:10:00;9.27;;;4.50;;
7173;SDS011;3628;48.654;8.932;2022-12-16T14:13:00;9.63;;;4.87;;
7173;SDS011;3628;48.654;8.932;2022-12-16T14:15:55;8.27;;;5.27;;
7173;SDS011;3628;48.654;8.932;2022-12-16T14:19:13;8.93;;;5.53;;
7173;SDS011;3628;48.654;8.932;2022-12-16T14:25:21;9.77;;;5.17;;
7173;SDS011;3628;48.654;8.932;2022-12-16T14:28:06;8.50;;;4.90;;
7173;SDS011;3628;48.654;8.932;2022-12-16T14:31:20;10.93;;;4.60;;
7173;SDS011;3628;48.654;8.932;2022-12-16T14:34:12;6.53;;;4.17;;
7173;SDS011;3628;48.654;8.932;2022-12-16T14:36:58;7.17;;;4.17;;
7173;SDS011;3628;48.654;8.932;2022-12-16T14:39:43;6.37;;;4.07;;
7173;SDS011;3628;48.654;8.932;2022-12-16T14:42:31;7.60;;;4.53;;
7173;SDS011;3628;48.654;8.932;2022-12-16T14:45:27;8.10;;;4.70;;
7173;SDS011;3628;48.654;8.932;2022-12-16T15:02:51;9.07;;;4.60;;
7173;SDS011;3628;48.654;8.932;2022-12-16T15:05:38;8.40;;;4.77;;
7173;SDS011;3628;48.654;8.932;2022-12-16T15:08:23;7.03;;;4.63;;
7173;SDS011;3628;48.654;8.932;2022-12-16T15:11:09;6.33;;;4.20;;
7173;SDS011;3628;48.654;8.932;2022-12-16T15:13:58;5.97;;;4.37;;
7173;SDS011;3628;48.654;8.932;2022-12-16T15:16:43;7.07;;;5.13;;
7173;SDS011;3628;48.654;8.932;2022-12-16T15:19:31;9.00;;;4.87;;
7173;SDS011;3628;48.654;8.932;2022-12-16T15:22:29;6.47;;;4.37;;
7173;SDS011;3628;48.654;8.932;2022-12-16T15:25:17;6.63;;;4.37;;
7173;SDS011;3628;48.654;8.932;2022-12-16T15:28:02;7.10;;;4.53;;
7173;SDS011;3628;48.654;8.932;2022-12-16T15:30:46;7.30;;;4.73;;
7173;SDS011;3628;48.654;8.932;2022-12-16T15:33:32;7.50;;;4.83;;
7173;SDS011;3628;48.654;8.932;2022-12-16T15:36:20;7.90;;;4.83;;
7173;SDS011;3628;48.654;8.932;2022-12-16T15:42:01;7.50;;;4.40;;
7173;SDS011;3628;48.654;8.932;2022-12-16T15:44:46;8.20;;;4.77;;
7173;SDS011;3628;48.654;8.932;2022-12-16T15:47:34;6.63;;;4.43;;
7173;SDS011;3628;48.654;8.932;2022-12-16T15:50:22;8.03;;;4.90;;
7173;SDS011;3628;48.654;8.932;2022-12-16T15:56:22;9.37;;;5.07;;
7173;SDS011;3628;48.654;8.932;2022-12-16T16:02:13;6.43;;;4.27;;
7173;SDS011;3628;48.654;8.932;2022-12-16T16:05:00;7.67;;;4.57;;
7173;SDS011;3628;48.654;8.932;2022-12-16T16:07:45;7.90;;;4.97;;
7173;SDS011;3628;48.654;8.932;2022-12-16T16:10:29;6.77;;;4.63;;
7173;SDS011;3628;48.654;8.932;2022-12-16T16:13:13;6.63;;;4.40;;
7173;SDS011;3628;48.654;8.932;2022-12-16T16:15:58;9.37;;;4.80;;
7173;SDS011;3628;48.654;8.932;2022-12-16T16:18:42;6.63;;;4.60;;
7173;SDS011;3628;48.654;8.932;2022-12-16T16:21:27;7.73;;;4.90;;
7173;SDS011;3628;48.654;8.932;2022-12-16T16:24:11;7.20;;;4.50;;
7173;SDS011;3628;48.654;8.932;2022-12-16T16:26:57;8.03;;;4.57;;
7173;SDS011;3628;48.654;8.932;2022-12-16T16:29:44;8.37;;;5.60;;
7173;SDS011;3628;48.654;8.932;2022-12-16T16:32:39;7.97;;;5.17;;
7173;SDS011;3628;48.654;8.932;2022-12-16T16:35:23;7.60;;;5.23;;
7173;SDS011;3628;48.654;8.932;2022-12-16T16:38:09;7.77;;;5.03;;
7173;SDS011;3628;48.654;8.932;2022-12-16T16:40:54;6.53;;;4.47;;
7173;SDS011;3628;48.654;8.932;2022-12-16T16:43:38;7.43;;;4.87;;
7173;SDS011;3628;48.654;8.932;2022-12-16T16:46:30;8.50;;;5.53;;
7173;SDS011;3628;48.654;8.932;2022-12-16T16:49:22;11.03;;;5.70;;
7173;SDS011;3628;48.654;8.932;2022-12-16T16:52:18;8.67;;;5.37;;
7173;SDS011;3628;48.654;8.932;2022-12-16T16:55:04;8.33;;;5.27;;
7173;SDS011;3628;48.654;8.932;2022-12-16T16:57:49;10.10;;;5.67;;
7173;SDS011;3628;48.654;8.932;2022-12-16T17:00:33;11.03;;;5.30;;
7173;SDS011;3628;48.654;8.932;2022-12-16T17:03:18;10.40;;;5.23;;
7173;SDS011;3628;48.654;8.932;2022-12-16T17:06:02;6.70;;;4.60;;
7173;SDS011;3628;48.654;8.932;2022-12-16T17:08:46;7.17;;;4.70;;
7173;SDS011;3628;48.654;8.932;2022-12-16T17:11:30;8.07;;;4.90;;
7173;SDS011;3628;48.654;8.932;2022-12-16T17:14:17;7.90;;;5.30;;
7173;SDS011;3628;48.654;8.932;2022-12-16T17:17:02;9.00;;;5.20;;
7173;SDS011;3628;48.654;8.932;2022-12-16T17:19:47;8.07;;;5.10;;
7173;SDS011;3628;48.654;8.932;2022-12-16T17:22:31;8.40;;;5.00;;
7173;SDS011;3628;48.654;8.932;2022-12-16T17:25:15;9.53;;;5.10;;
7173;SDS011;3628;48.654;8.932;2022-12-16T17:27:59;8.77;;;5.47;;
7173;SDS011;3628;48.654;8.932;2022-12-16T17:30:44;9.63;;;5.80;;
7173;SDS011;3628;48.654;8.932;2022-12-16T17:33:28;9.03;;;5.47;;
7173;SDS011;3628;48.654;8.932;2022-12-16T17:36:13;10.07;;;5.67;;
7173;SDS011;3628;48.654;8.932;2022-12-16T17:38:59;7.63;;;4.67;;
7173;SDS011;3628;48.654;8.932;2022-12-16T17:41:44;9.50;;;5.63;;
7173;SDS011;3628;48.654;8.932;2022-12-16T17:44:28;9.70;;;5.37;;
7173;SDS011;3628;48.654;8.932;2022-12-16T17:47:12;7.27;;;5.33;;
7173;SDS011;3628;48.654;8.932;2022-12-16T17:49:56;8.93;;;5.83;;
7173;SDS011;3628;48.654;8.932;2022-12-16T17:52:40;9.83;;;6.10;;
7173;SDS011;3628;48.654;8.932;2022-12-16T17:55:24;9.07;;;5.80;;
7173;SDS011;3628;48.654;8.932;2022-12-16T17:58:08;8.53;;;5.93;;
7173;SDS011;3628;48.654;8.932;2022-12-16T18:00:52;11.07;;;7.63;;
7173;SDS011;3628;48.654;8.932;2022-12-16T18:03:42;11.50;;;6.33;;
7173;SDS011;3628;48.654;8.932;2022-12-16T18:06:26;10.33;;;5.90;;
7173;SDS011;3628;48.654;8.932;2022-12-16T18:09:10;10.07;;;5.73;;
7173;SDS011;3628;48.654;8.932;2022-12-16T18:11:54;9.30;;;5.47;;
7173;SDS011;3628;48.654;8.932;2022-12-16T18:14:38;8.50;;;5.10;;
7173;SDS011;3628;48.654;8.932;2022-12-16T18:17:22;11.47;;;6.50;;
7173;SDS011;3628;48.654;8.932;2022-12-16T18:20:06;33.10;;;18.60;;
7173;SDS011;3628;48.654;8.932;2022-12-16T18:22:51;16.17;;;8.80;;
7173;SDS011;3628;48.654;8.932;2022-12-16T18:25:36;11.60;;;7.63;;
7173;SDS011;3628;48.654;8.932;2022-12-16T18:28:20;9.17;;;5.97;;
7173;SDS011;3628;48.654;8.932;2022-12-16T18:31:05;9.47;;;5.93;;
7173;SDS011;3628;48.654;8.932;2022-12-16T18:33:49;9.00;;;5.47;;
7173;SDS011;3628;48.654;8.932;2022-12-16T18:36:33;9.77;;;6.00;;
7173;SDS011;3628;48.654;8.932;2022-12-16T18:39:17;13.27;;;8.30;;
7173;SDS011;3628;48.654;8.932;2022-12-16T18:42:01;10.00;;;7.27;;
7173;SDS011;3628;48.654;8.932;2022-12-16T18:44:47;10.10;;;6.47;;
7173;SDS011;3628;48.654;8.932;2022-12-16T18:47:32;8.73;;;6.17;;
7173;SDS011;3628;48.654;8.932;2022-12-16T18:50:16;9.90;;;6.33;;
7173;SDS011;3628;48.654;8.932;2022-12-16T18:53:01;11.77;;;7.10;;
7173;SDS011;3628;48.654;8.932;2022-12-16T18:55:45;9.63;;;6.93;;
7173;SDS011;3628;48.654;8.932;2022-12-16T18:58:49;11.33;;;6.83;;
7173;SDS011;3628;48.654;8.932;2022-12-16T19:01:33;10.80;;;7.40;;